sensor_id;sensor_type;location;lat;lon;timestamp;P1;durP1;ratioP1;P2;durP2;ratioP2
52962;SDS011;38827;53.024;6.596;2024-02-26T00:00:22;20.55;;;13.23;;
52962;SDS011;38827;53.024;6.596;2024-02-26T00:02:49;23.15;;;12.98;;
52962;SDS011;38827;53.024;6.596;2024-02-26T00:05:14;19.60;;;12.02;;
52962;SDS011;38827;53.024;6.596;2024-02-26T00:07:40;17.80;;;12.07;;
52962;SDS011;38827;53.024;6.596;2024-02-26T00:10:06;19.13;;;12.30;;
52962;SDS011;38827;53.024;6.596;2024-02-26T00:12:32;22.43;;;13.07;;
52962;SDS011;38827;53.024;6.596;2024-02-26T00:14:58;19.60;;;12.60;;
52962;SDS011;38827;53.024;6.596;2024-02-26T00:17:23;19.45;;;12.73;;
52962;SDS011;38827;53.024;6.596;2024-02-26T00:19:49;20.63;;;13.15;;
52962;SDS011;38827;53.024;6.596;2024-02-26T00:22:15;19.67;;;12.55;;
52962;SDS011;38827;53.024;6.596;2024-02-26T00:24:41;19.90;;;12.48;;
52962;SDS011;38827;53.024;6.596;2024-02-26T00:27:06;20.25;;;12.98;;
52962;SDS011;38827;53.024;6.596;2024-02-26T00:29:32;20.02;;;12.70;;
52962;SDS011;38827;53.024;6.596;2024-02-26T00:31:58;21.73;;;12.75;;
52962;SDS011;38827;53.024;6.596;2024-02-26T00:34:23;21.02;;;13.30;;
52962;SDS011;38827;53.024;6.596;2024-02-26T00:36:49;23.45;;;13.48;;
52962;SDS011;38827;53.024;6.596;2024-02-26T00:39:15;19.15;;;12.50;;
52962;SDS011;38827;53.024;6.596;2024-02-26T00:41:40;21.95;;;13.32;;
52962;SDS011;38827;53.024;6.596;2024-02-26T00:44:08;24.75;;;13.85;;
52962;SDS011;38827;53.024;6.596;2024-02-26T00:46:34;23.77;;;13.65;;
52962;SDS011;38827;53.024;6.596;2024-02-26T00:49:00;24.65;;;13.95;;
52962;SDS011;38827;53.024;6.596;2024-02-26T00:51:26;28.35;;;15.70;;
52962;SDS011;38827;53.024;6.596;2024-02-26T00:53:52;25.02;;;15.38;;
52962;SDS011;38827;53.024;6.596;2024-02-26T00:56:18;30.58;;;16.70;;
52962;SDS011;38827;53.024;6.596;2024-02-26T00:58:43;31.38;;;17.30;;
52962;SDS011;38827;53.024;6.596;2024-02-26T01:01:09;30.80;;;16.92;;
52962;SDS011;38827;53.024;6.596;2024-02-26T01:03:34;35.70;;;20.00;;
52962;SDS011;38827;53.024;6.596;2024-02-26T01:06:00;34.80;;;18.45;;
52962;SDS011;38827;53.024;6.596;2024-02-26T01:08:26;33.92;;;19.40;;
52962;SDS011;38827;53.024;6.596;2024-02-26T01:10:51;37.08;;;19.25;;
52962;SDS011;38827;53.024;6.596;2024-02-26T01:13:17;37.70;;;20.75;;
52962;SDS011;38827;53.024;6.596;2024-02-26T01:15:43;37.33;;;20.30;;
52962;SDS011;38827;53.024;6.596;2024-02-26T01:18:12;35.22;;;19.98;;
52962;SDS011;38827;53.024;6.596;2024-02-26T01:20:37;40.30;;;20.77;;
52962;SDS011;38827;53.024;6.596;2024-02-26T01:23:03;37.92;;;21.50;;
52962;SDS011;38827;53.024;6.596;2024-02-26T01:25:29;39.00;;;21.13;;
52962;SDS011;38827;53.024;6.596;2024-02-26T01:27:54;39.58;;;22.48;;
52962;SDS011;38827;53.024;6.596;2024-02-26T01:30:20;38.55;;;20.70;;
52962;SDS011;38827;53.024;6.596;2024-02-26T01:32:46;42.80;;;23.55;;
52962;SDS011;38827;53.024;6.596;2024-02-26T01:35:12;41.63;;;23.80;;
52962;SDS011;38827;53.024;6.596;2024-02-26T01:37:37;39.28;;;22.92;;
52962;SDS011;38827;53.024;6.596;2024-02-26T01:40:04;44.30;;;25.13;;
52962;SDS011;38827;53.024;6.596;2024-02-26T01:42:31;48.78;;;26.25;;
52962;SDS011;38827;53.024;6.596;2024-02-26T01:44:58;47.03;;;25.95;;
52962;SDS011;38827;53.024;6.596;2024-02-26T01:47:24;36.08;;;19.65;;
52962;SDS011;38827;53.024;6.596;2024-02-26T01:49:52;50.58;;;26.55;;
52962;SDS011;38827;53.024;6.596;2024-02-26T01:52:18;46.10;;;24.83;;
52962;SDS011;38827;53.024;6.596;2024-02-26T01:54:47;48.65;;;25.70;;
52962;SDS011;38827;53.024;6.596;2024-02-26T01:57:13;47.33;;;24.53;;
52962;SDS011;38827;53.024;6.596;2024-02-26T01:59:57;46.08;;;25.33;;
52962;SDS011;38827;53.024;6.596;2024-02-26T02:02:23;46.85;;;25.63;;
52962;SDS011;38827;53.024;6.596;2024-02-26T02:05:01;47.20;;;25.42;;
52962;SDS011;38827;53.024;6.596;2024-02-26T02:07:28;48.30;;;25.35;;
52962;SDS011;38827;53.024;6.596;2024-02-26T02:09:55;49.63;;;25.83;;
52962;SDS011;38827;53.024;6.596;2024-02-26T02:12:21;43.97;;;24.15;;
52962;SDS011;38827;53.024;6.596;2024-02-26T02:14:47;43.20;;;24.48;;
52962;SDS011;38827;53.024;6.596;2024-02-26T02:17:12;47.65;;;25.63;;
52962;SDS011;38827;53.024;6.596;2024-02-26T02:19:38;45.85;;;25.67;;
52962;SDS011;38827;53.024;6.596;2024-02-26T02:22:04;47.22;;;25.10;;
52962;SDS011;38827;53.024;6.596;2024-02-26T02:24:29;43.67;;;24.45;;
52962;SDS011;38827;53.024;6.596;2024-02-26T02:26:55;44.85;;;24.38;;
52962;SDS011;38827;53.024;6.596;2024-02-26T02:29:21;39.50;;;23.65;;
52962;SDS011;38827;53.024;6.596;2024-02-26T02:31:59;39.33;;;23.60;;
52962;SDS011;38827;53.024;6.596;2024-02-26T02:34:39;41.75;;;23.73;;
52962;SDS011;38827;53.024;6.596;2024-02-26T02:37:05;40.47;;;23.10;;
52962;SDS011;38827;53.024;6.596;2024-02-26T02:39:46;41.53;;;23.10;;
52962;SDS011;38827;53.024;6.596;2024-02-26T02:42:11;43.08;;;23.30;;
52962;SDS011;38827;53.024;6.596;2024-02-26T02:44:43;38.42;;;22.55;;
52962;SDS011;38827;53.024;6.596;2024-02-26T02:47:09;39.13;;;22.45;;
52962;SDS011;38827;53.024;6.596;2024-02-26T02:49:50;35.25;;;21.92;;
52962;SDS011;38827;53.024;6.596;2024-02-26T02:52:31;37.65;;;22.08;;
52962;SDS011;38827;53.024;6.596;2024-02-26T02:55:01;36.17;;;21.08;;
52962;SDS011;38827;53.024;6.596;2024-02-26T02:57:36;39.33;;;21.70;;
52962;SDS011;38827;53.024;6.596;2024-02-26T03:00:22;33.35;;;20.27;;
52962;SDS011;38827;53.024;6.596;2024-02-26T03:03:11;36.10;;;20.52;;
52962;SDS011;38827;53.024;6.596;2024-02-26T03:05:49;35.63;;;20.85;;
52962;SDS011;38827;53.024;6.596;2024-02-26T03:08:27;33.53;;;20.13;;
52962;SDS011;38827;53.024;6.596;2024-02-26T03:11:07;30.98;;;19.27;;
52962;SDS011;38827;53.024;6.596;2024-02-26T03:13:41;31.85;;;18.92;;
52962;SDS011;38827;53.024;6.596;2024-02-26T03:16:10;29.70;;;18.83;;
52962;SDS011;38827;53.024;6.596;2024-02-26T03:18:45;28.65;;;17.20;;
52962;SDS011;38827;53.024;6.596;2024-02-26T03:21:11;27.63;;;16.58;;
52962;SDS011;38827;53.024;6.596;2024-02-26T03:23:36;26.40;;;16.77;;
52962;SDS011;38827;53.024;6.596;2024-02-26T03:26:03;28.42;;;17.67;;
52962;SDS011;38827;53.024;6.596;2024-02-26T03:28:47;26.98;;;17.08;;
52962;SDS011;38827;53.024;6.596;2024-02-26T03:34:20;23.67;;;15.68;;
52962;SDS011;38827;53.024;6.596;2024-02-26T03:36:45;21.85;;;15.35;;
52962;SDS011;38827;53.024;6.596;2024-02-26T03:39:14;25.48;;;16.02;;
52962;SDS011;38827;53.024;6.596;2024-02-26T03:41:40;21.60;;;14.45;;
52962;SDS011;38827;53.024;6.596;2024-02-26T03:44:23;21.83;;;14.25;;
52962;SDS011;38827;53.024;6.596;2024-02-26T03:46:58;21.25;;;14.52;;
52962;SDS011;38827;53.024;6.596;2024-02-26T03:49:36;24.80;;;14.60;;
52962;SDS011;38827;53.024;6.596;2024-02-26T03:52:14;20.42;;;13.68;;
52962;SDS011;38827;53.024;6.596;2024-02-26T03:54:58;21.45;;;13.82;;
52962;SDS011;38827;53.024;6.596;2024-02-26T03:57:38;21.45;;;13.82;;
52962;SDS011;38827;53.024;6.596;2024-02-26T04:00:03;19.73;;;13.63;;
52962;SDS011;38827;53.024;6.596;2024-02-26T04:02:29;21.87;;;13.43;;
52962;SDS011;38827;53.024;6.596;2024-02-26T04:05:04;20.17;;;12.98;;
52962;SDS011;38827;53.024;6.596;2024-02-26T04:07:34;18.13;;;12.63;;
52962;SDS011;38827;53.024;6.596;2024-02-26T04:09:59;19.42;;;12.60;;
52962;SDS011;38827;53.024;6.596;2024-02-26T04:12:25;17.58;;;12.75;;
52962;SDS011;38827;53.024;6.596;2024-02-26T04:14:50;17.50;;;11.85;;
52962;SDS011;38827;53.024;6.596;2024-02-26T04:17:16;18.75;;;12.45;;
52962;SDS011;38827;53.024;6.596;2024-02-26T04:19:42;16.85;;;11.13;;
52962;SDS011;38827;53.024;6.596;2024-02-26T04:22:07;16.05;;;11.00;;
52962;SDS011;38827;53.024;6.596;2024-02-26T04:24:33;15.38;;;10.75;;
52962;SDS011;38827;53.024;6.596;2024-02-26T04:27:00;14.18;;;10.00;;
52962;SDS011;38827;53.024;6.596;2024-02-26T04:29:26;14.88;;;10.18;;
52962;SDS011;38827;53.024;6.596;2024-02-26T04:31:52;14.90;;;10.02;;
52962;SDS011;38827;53.024;6.596;2024-02-26T04:34:17;15.07;;;10.15;;
52962;SDS011;38827;53.024;6.596;2024-02-26T04:36:43;13.38;;;9.57;;
52962;SDS011;38827;53.024;6.596;2024-02-26T04:39:09;13.85;;;9.52;;
52962;SDS011;38827;53.024;6.596;2024-02-26T04:41:35;14.48;;;9.43;;
52962;SDS011;38827;53.024;6.596;2024-02-26T04:44:24;11.95;;;8.27;;
52962;SDS011;38827;53.024;6.596;2024-02-26T04:46:50;10.70;;;8.02;;
52962;SDS011;38827;53.024;6.596;2024-02-26T04:49:15;11.35;;;7.70;;
52962;SDS011;38827;53.024;6.596;2024-02-26T04:51:42;9.88;;;8.30;;
52962;SDS011;38827;53.024;6.596;2024-02-26T04:54:08;10.82;;;7.93;;
52962;SDS011;38827;53.024;6.596;2024-02-26T04:56:33;11.70;;;7.55;;
52962;SDS011;38827;53.024;6.596;2024-02-26T04:58:59;11.80;;;7.32;;
52962;SDS011;38827;53.024;6.596;2024-02-26T05:01:24;14.13;;;8.18;;
52962;SDS011;38827;53.024;6.596;2024-02-26T05:06:56;10.85;;;7.30;;
52962;SDS011;38827;53.024;6.596;2024-02-26T05:09:25;12.18;;;7.88;;
52962;SDS011;38827;53.024;6.596;2024-02-26T05:17:32;11.52;;;7.05;;
52962;SDS011;38827;53.024;6.596;2024-02-26T05:20:02;12.23;;;7.75;;
52962;SDS011;38827;53.024;6.596;2024-02-26T05:22:30;9.38;;;6.50;;
52962;SDS011;38827;53.024;6.596;2024-02-26T05:25:08;13.00;;;7.70;;
52962;SDS011;38827;53.024;6.596;2024-02-26T05:27:37;17.38;;;7.38;;
52962;SDS011;38827;53.024;6.596;2024-02-26T05:30:12;9.85;;;6.40;;
52962;SDS011;38827;53.024;6.596;2024-02-26T05:32:41;9.30;;;6.50;;
52962;SDS011;38827;53.024;6.596;2024-02-26T05:35:09;8.80;;;6.10;;
52962;SDS011;38827;53.024;6.596;2024-02-26T05:37:44;10.32;;;6.07;;
52962;SDS011;38827;53.024;6.596;2024-02-26T05:40:19;9.18;;;5.72;;
52962;SDS011;38827;53.024;6.596;2024-02-26T05:42:47;8.38;;;5.25;;
52962;SDS011;38827;53.024;6.596;2024-02-26T05:45:17;5.65;;;4.68;;
52962;SDS011;38827;53.024;6.596;2024-02-26T05:47:54;6.35;;;4.75;;
52962;SDS011;38827;53.024;6.596;2024-02-26T05:50:29;8.90;;;5.38;;
52962;SDS011;38827;53.024;6.596;2024-02-26T05:53:07;6.57;;;4.80;;
52962;SDS011;38827;53.024;6.596;2024-02-26T05:55:33;6.78;;;4.57;;
52962;SDS011;38827;53.024;6.596;2024-02-26T05:58:01;5.60;;;4.82;;
52962;SDS011;38827;53.024;6.596;2024-02-26T06:00:30;5.72;;;4.05;;
52962;SDS011;38827;53.024;6.596;2024-02-26T06:03:08;6.90;;;4.30;;
52962;SDS011;38827;53.024;6.596;2024-02-26T06:05:36;5.05;;;4.05;;
52962;SDS011;38827;53.024;6.596;2024-02-26T06:08:02;7.63;;;4.50;;
52962;SDS011;38827;53.024;6.596;2024-02-26T06:10:28;6.70;;;4.60;;
52962;SDS011;38827;53.024;6.596;2024-02-26T06:13:10;5.45;;;4.47;;
52962;SDS011;38827;53.024;6.596;2024-02-26T06:15:45;4.90;;;4.40;;
52962;SDS011;38827;53.024;6.596;2024-02-26T06:18:20;5.10;;;3.80;;
52962;SDS011;38827;53.024;6.596;2024-02-26T06:24:05;5.10;;;3.83;;
52962;SDS011;38827;53.024;6.596;2024-02-26T06:26:34;6.47;;;3.95;;
52962;SDS011;38827;53.024;6.596;2024-02-26T06:29:12;5.47;;;4.03;;
52962;SDS011;38827;53.024;6.596;2024-02-26T06:34:35;6.15;;;4.13;;
52962;SDS011;38827;53.024;6.596;2024-02-26T06:37:09;6.68;;;4.60;;
52962;SDS011;38827;53.024;6.596;2024-02-26T06:39:37;5.60;;;4.55;;
52962;SDS011;38827;53.024;6.596;2024-02-26T06:42:19;6.00;;;4.22;;
52962;SDS011;38827;53.024;6.596;2024-02-26T06:44:44;5.22;;;4.30;;
52962;SDS011;38827;53.024;6.596;2024-02-26T06:47:10;6.63;;;4.20;;
52962;SDS011;38827;53.024;6.596;2024-02-26T06:52:10;7.50;;;4.75;;
52962;SDS011;38827;53.024;6.596;2024-02-26T06:54:36;7.82;;;4.97;;
52962;SDS011;38827;53.024;6.596;2024-02-26T06:57:11;5.57;;;5.03;;
52962;SDS011;38827;53.024;6.596;2024-02-26T06:59:36;8.15;;;4.47;;
52962;SDS011;38827;53.024;6.596;2024-02-26T07:02:14;10.23;;;5.03;;
52962;SDS011;38827;53.024;6.596;2024-02-26T07:04:41;6.20;;;4.63;;
52962;SDS011;38827;53.024;6.596;2024-02-26T07:07:19;5.78;;;4.75;;
52962;SDS011;38827;53.024;6.596;2024-02-26T07:09:45;6.80;;;5.07;;
52962;SDS011;38827;53.024;6.596;2024-02-26T07:12:19;7.25;;;5.22;;
52962;SDS011;38827;53.024;6.596;2024-02-26T07:14:55;6.57;;;5.05;;
52962;SDS011;38827;53.024;6.596;2024-02-26T07:17:36;8.27;;;5.40;;
52962;SDS011;38827;53.024;6.596;2024-02-26T07:20:08;6.25;;;4.70;;
52962;SDS011;38827;53.024;6.596;2024-02-26T07:22:34;9.88;;;5.15;;
52962;SDS011;38827;53.024;6.596;2024-02-26T07:25:00;5.78;;;5.13;;
52962;SDS011;38827;53.024;6.596;2024-02-26T07:27:40;6.53;;;4.97;;
52962;SDS011;38827;53.024;6.596;2024-02-26T07:30:06;5.55;;;4.80;;
52962;SDS011;38827;53.024;6.596;2024-02-26T07:32:53;6.57;;;5.72;;
52962;SDS011;38827;53.024;6.596;2024-02-26T07:35:37;5.53;;;4.60;;
52962;SDS011;38827;53.024;6.596;2024-02-26T07:38:06;7.03;;;4.93;;
52962;SDS011;38827;53.024;6.596;2024-02-26T07:40:47;6.10;;;5.00;;
52962;SDS011;38827;53.024;6.596;2024-02-26T07:43:13;8.07;;;5.50;;
52962;SDS011;38827;53.024;6.596;2024-02-26T07:45:38;7.70;;;5.63;;
52962;SDS011;38827;53.024;6.596;2024-02-26T07:48:10;8.85;;;5.28;;
52962;SDS011;38827;53.024;6.596;2024-02-26T07:50:40;8.33;;;6.00;;
52962;SDS011;38827;53.024;6.596;2024-02-26T07:53:06;6.13;;;4.82;;
52962;SDS011;38827;53.024;6.596;2024-02-26T07:55:31;5.97;;;5.18;;
52962;SDS011;38827;53.024;6.596;2024-02-26T07:57:57;6.50;;;5.05;;
52962;SDS011;38827;53.024;6.596;2024-02-26T08:00:23;5.10;;;4.60;;
52962;SDS011;38827;53.024;6.596;2024-02-26T08:02:48;5.88;;;4.80;;
52962;SDS011;38827;53.024;6.596;2024-02-26T08:05:14;5.80;;;4.97;;
52962;SDS011;38827;53.024;6.596;2024-02-26T08:07:46;6.23;;;4.50;;
52962;SDS011;38827;53.024;6.596;2024-02-26T08:10:12;5.72;;;4.90;;
52962;SDS011;38827;53.024;6.596;2024-02-26T08:12:38;6.05;;;5.10;;
52962;SDS011;38827;53.024;6.596;2024-02-26T08:15:04;7.93;;;5.65;;
52962;SDS011;38827;53.024;6.596;2024-02-26T08:17:30;6.05;;;5.15;;
52962;SDS011;38827;53.024;6.596;2024-02-26T08:20:01;5.68;;;4.78;;
52962;SDS011;38827;53.024;6.596;2024-02-26T08:22:27;5.55;;;4.22;;
52962;SDS011;38827;53.024;6.596;2024-02-26T08:24:53;6.20;;;4.97;;
52962;SDS011;38827;53.024;6.596;2024-02-26T08:27:18;6.35;;;4.65;;
52962;SDS011;38827;53.024;6.596;2024-02-26T08:29:44;6.15;;;4.40;;
52962;SDS011;38827;53.024;6.596;2024-02-26T08:32:10;5.20;;;4.70;;
52962;SDS011;38827;53.024;6.596;2024-02-26T08:34:36;6.93;;;4.97;;
52962;SDS011;38827;53.024;6.596;2024-02-26T08:37:02;7.00;;;4.75;;
52962;SDS011;38827;53.024;6.596;2024-02-26T08:39:27;8.73;;;4.97;;
52962;SDS011;38827;53.024;6.596;2024-02-26T08:41:53;6.90;;;5.07;;
52962;SDS011;38827;53.024;6.596;2024-02-26T08:44:19;6.15;;;4.53;;
52962;SDS011;38827;53.024;6.596;2024-02-26T08:46:44;6.75;;;5.07;;
52962;SDS011;38827;53.024;6.596;2024-02-26T08:51:43;6.67;;;4.70;;
52962;SDS011;38827;53.024;6.596;2024-02-26T08:54:09;5.00;;;4.40;;
52962;SDS011;38827;53.024;6.596;2024-02-26T08:56:35;6.20;;;4.60;;
52962;SDS011;38827;53.024;6.596;2024-02-26T08:59:00;5.32;;;4.63;;
52962;SDS011;38827;53.024;6.596;2024-02-26T09:01:31;7.35;;;4.85;;
52962;SDS011;38827;53.024;6.596;2024-02-26T09:04:00;6.85;;;4.80;;
52962;SDS011;38827;53.024;6.596;2024-02-26T09:06:26;5.88;;;4.30;;
52962;SDS011;38827;53.024;6.596;2024-02-26T09:08:54;6.05;;;4.75;;
52962;SDS011;38827;53.024;6.596;2024-02-26T09:11:20;8.57;;;4.60;;
52962;SDS011;38827;53.024;6.596;2024-02-26T09:13:47;4.88;;;4.22;;
52962;SDS011;38827;53.024;6.596;2024-02-26T09:16:12;7.72;;;4.55;;
52962;SDS011;38827;53.024;6.596;2024-02-26T09:18:38;5.38;;;4.50;;
52962;SDS011;38827;53.024;6.596;2024-02-26T09:21:07;7.35;;;4.35;;
52962;SDS011;38827;53.024;6.596;2024-02-26T09:23:32;6.38;;;4.50;;
52962;SDS011;38827;53.024;6.596;2024-02-26T09:26:00;6.70;;;4.57;;
52962;SDS011;38827;53.024;6.596;2024-02-26T09:28:25;5.13;;;4.63;;
52962;SDS011;38827;53.024;6.596;2024-02-26T09:30:51;6.50;;;4.40;;
52962;SDS011;38827;53.024;6.596;2024-02-26T09:33:20;6.68;;;4.50;;
52962;SDS011;38827;53.024;6.596;2024-02-26T09:35:53;6.00;;;4.50;;
52962;SDS011;38827;53.024;6.596;2024-02-26T09:38:21;4.95;;;4.43;;
52962;SDS011;38827;53.024;6.596;2024-02-26T09:40:47;4.88;;;4.20;;
52962;SDS011;38827;53.024;6.596;2024-02-26T09:43:13;5.30;;;4.78;;
52962;SDS011;38827;53.024;6.596;2024-02-26T09:45:42;5.55;;;4.35;;
52962;SDS011;38827;53.024;6.596;2024-02-26T09:48:08;4.55;;;3.97;;
52962;SDS011;38827;53.024;6.596;2024-02-26T09:50:39;5.00;;;4.50;;
52962;SDS011;38827;53.024;6.596;2024-02-26T09:53:08;6.15;;;4.53;;
52962;SDS011;38827;53.024;6.596;2024-02-26T09:55:35;9.00;;;5.15;;
52962;SDS011;38827;53.024;6.596;2024-02-26T09:58:13;8.27;;;4.95;;
52962;SDS011;38827;53.024;6.596;2024-02-26T10:01:28;5.90;;;4.38;;
52962;SDS011;38827;53.024;6.596;2024-02-26T10:03:58;5.50;;;4.65;;
52962;SDS011;38827;53.024;6.596;2024-02-26T10:06:28;7.65;;;4.68;;
52962;SDS011;38827;53.024;6.596;2024-02-26T10:08:54;5.70;;;4.45;;
52962;SDS011;38827;53.024;6.596;2024-02-26T10:11:21;6.60;;;4.45;;
52962;SDS011;38827;53.024;6.596;2024-02-26T10:14:03;5.10;;;4.47;;
52962;SDS011;38827;53.024;6.596;2024-02-26T10:16:59;5.05;;;4.25;;
52962;SDS011;38827;53.024;6.596;2024-02-26T10:19:41;7.22;;;4.47;;
52962;SDS011;38827;53.024;6.596;2024-02-26T10:22:12;5.13;;;4.00;;
52962;SDS011;38827;53.024;6.596;2024-02-26T10:24:41;5.70;;;3.67;;
52962;SDS011;38827;53.024;6.596;2024-02-26T10:32:44;5.35;;;4.20;;
52962;SDS011;38827;53.024;6.596;2024-02-26T10:35:15;4.80;;;3.97;;
52962;SDS011;38827;53.024;6.596;2024-02-26T10:38:06;4.45;;;3.53;;
52962;SDS011;38827;53.024;6.596;2024-02-26T10:43:38;4.68;;;3.80;;
52962;SDS011;38827;53.024;6.596;2024-02-26T10:50:05;4.68;;;3.40;;
52962;SDS011;38827;53.024;6.596;2024-02-26T10:55:23;3.35;;;3.05;;
52962;SDS011;38827;53.024;6.596;2024-02-26T10:58:07;3.72;;;3.30;;
52962;SDS011;38827;53.024;6.596;2024-02-26T11:00:38;5.15;;;3.83;;
52962;SDS011;38827;53.024;6.596;2024-02-26T11:03:26;4.05;;;2.90;;
52962;SDS011;38827;53.024;6.596;2024-02-26T11:06:06;4.25;;;3.28;;
52962;SDS011;38827;53.024;6.596;2024-02-26T11:08:33;3.47;;;3.17;;
52962;SDS011;38827;53.024;6.596;2024-02-26T11:11:02;4.27;;;3.20;;
52962;SDS011;38827;53.024;6.596;2024-02-26T11:13:34;3.00;;;2.70;;
52962;SDS011;38827;53.024;6.596;2024-02-26T11:16:05;4.03;;;3.28;;
52962;SDS011;38827;53.024;6.596;2024-02-26T11:18:32;3.80;;;2.70;;
52962;SDS011;38827;53.024;6.596;2024-02-26T11:21:21;3.58;;;3.17;;
52962;SDS011;38827;53.024;6.596;2024-02-26T11:24:27;3.42;;;2.80;;
52962;SDS011;38827;53.024;6.596;2024-02-26T11:27:09;2.88;;;2.67;;
52962;SDS011;38827;53.024;6.596;2024-02-26T11:35:20;2.95;;;2.47;;
52962;SDS011;38827;53.024;6.596;2024-02-26T11:40:48;2.60;;;2.22;;
52962;SDS011;38827;53.024;6.596;2024-02-26T11:52:18;2.65;;;2.45;;
52962;SDS011;38827;53.024;6.596;2024-02-26T11:54:50;2.72;;;2.00;;
52962;SDS011;38827;53.024;6.596;2024-02-26T11:57:43;2.25;;;2.05;;
52962;SDS011;38827;53.024;6.596;2024-02-26T12:00:13;2.83;;;2.08;;
52962;SDS011;38827;53.024;6.596;2024-02-26T12:02:55;2.15;;;1.95;;
52962;SDS011;38827;53.024;6.596;2024-02-26T12:05:26;6.22;;;2.72;;
52962;SDS011;38827;53.024;6.596;2024-02-26T12:07:59;3.28;;;2.15;;
52962;SDS011;38827;53.024;6.596;2024-02-26T12:10:36;2.35;;;2.10;;
52962;SDS011;38827;53.024;6.596;2024-02-26T12:13:16;3.45;;;2.40;;
52962;SDS011;38827;53.024;6.596;2024-02-26T12:15:43;2.70;;;2.50;;
52962;SDS011;38827;53.024;6.596;2024-02-26T12:18:15;3.88;;;2.50;;
52962;SDS011;38827;53.024;6.596;2024-02-26T12:20:42;3.97;;;2.63;;
52962;SDS011;38827;53.024;6.596;2024-02-26T12:23:15;3.58;;;2.70;;
52962;SDS011;38827;53.024;6.596;2024-02-26T12:25:45;4.10;;;3.15;;
52962;SDS011;38827;53.024;6.596;2024-02-26T12:28:13;3.95;;;3.05;;
52962;SDS011;38827;53.024;6.596;2024-02-26T12:30:39;5.18;;;2.78;;
52962;SDS011;38827;53.024;6.596;2024-02-26T12:33:05;3.92;;;3.05;;
52962;SDS011;38827;53.024;6.596;2024-02-26T12:35:33;4.75;;;3.58;;
52962;SDS011;38827;53.024;6.596;2024-02-26T12:40:26;9.03;;;3.90;;
52962;SDS011;38827;53.024;6.596;2024-02-26T12:42:53;5.60;;;3.90;;
52962;SDS011;38827;53.024;6.596;2024-02-26T12:45:23;6.10;;;4.38;;
52962;SDS011;38827;53.024;6.596;2024-02-26T12:47:51;5.15;;;4.35;;
52962;SDS011;38827;53.024;6.596;2024-02-26T12:50:17;7.28;;;4.47;;
52962;SDS011;38827;53.024;6.596;2024-02-26T12:52:43;7.10;;;5.00;;
52962;SDS011;38827;53.024;6.596;2024-02-26T12:55:11;8.77;;;4.90;;
52962;SDS011;38827;53.024;6.596;2024-02-26T12:57:42;6.80;;;4.68;;
52962;SDS011;38827;53.024;6.596;2024-02-26T13:00:10;8.15;;;5.65;;
52962;SDS011;38827;53.024;6.596;2024-02-26T13:02:39;8.05;;;5.40;;
52962;SDS011;38827;53.024;6.596;2024-02-26T13:05:10;6.75;;;5.05;;
52962;SDS011;38827;53.024;6.596;2024-02-26T13:07:42;6.28;;;4.90;;
52962;SDS011;38827;53.024;6.596;2024-02-26T13:10:11;7.93;;;5.20;;
52962;SDS011;38827;53.024;6.596;2024-02-26T13:12:48;8.23;;;5.00;;
52962;SDS011;38827;53.024;6.596;2024-02-26T13:15:19;6.82;;;5.00;;
52962;SDS011;38827;53.024;6.596;2024-02-26T13:17:46;7.15;;;5.20;;
52962;SDS011;38827;53.024;6.596;2024-02-26T13:20:12;6.68;;;5.40;;
52962;SDS011;38827;53.024;6.596;2024-02-26T13:22:50;8.02;;;6.45;;
52962;SDS011;38827;53.024;6.596;2024-02-26T13:25:20;8.18;;;5.70;;
52962;SDS011;38827;53.024;6.596;2024-02-26T13:27:46;7.00;;;5.20;;
52962;SDS011;38827;53.024;6.596;2024-02-26T13:30:12;7.60;;;5.20;;
52962;SDS011;38827;53.024;6.596;2024-02-26T13:32:41;5.93;;;5.32;;
52962;SDS011;38827;53.024;6.596;2024-02-26T13:37:35;6.40;;;4.53;;
52962;SDS011;38827;53.024;6.596;2024-02-26T13:40:04;6.70;;;5.20;;
52962;SDS011;38827;53.024;6.596;2024-02-26T13:42:34;7.22;;;5.43;;
52962;SDS011;38827;53.024;6.596;2024-02-26T13:45:00;8.93;;;5.07;;
52962;SDS011;38827;53.024;6.596;2024-02-26T13:47:26;7.82;;;5.95;;
52962;SDS011;38827;53.024;6.596;2024-02-26T13:49:53;8.98;;;5.95;;
52962;SDS011;38827;53.024;6.596;2024-02-26T13:52:19;7.65;;;6.18;;
52962;SDS011;38827;53.024;6.596;2024-02-26T13:54:47;8.48;;;6.28;;
52962;SDS011;38827;53.024;6.596;2024-02-26T13:57:13;8.65;;;6.15;;
52962;SDS011;38827;53.024;6.596;2024-02-26T13:59:39;8.65;;;5.90;;
52962;SDS011;38827;53.024;6.596;2024-02-26T14:02:07;10.52;;;6.50;;
52962;SDS011;38827;53.024;6.596;2024-02-26T14:04:33;10.38;;;6.60;;
52962;SDS011;38827;53.024;6.596;2024-02-26T14:06:59;9.05;;;6.68;;
52962;SDS011;38827;53.024;6.596;2024-02-26T14:09:25;11.30;;;7.38;;
52962;SDS011;38827;53.024;6.596;2024-02-26T14:11:54;13.63;;;7.28;;
52962;SDS011;38827;53.024;6.596;2024-02-26T14:14:38;10.30;;;7.55;;
52962;SDS011;38827;53.024;6.596;2024-02-26T14:17:05;10.27;;;7.78;;
52962;SDS011;38827;53.024;6.596;2024-02-26T14:19:44;11.45;;;7.82;;
52962;SDS011;38827;53.024;6.596;2024-02-26T14:22:13;11.02;;;7.93;;
52962;SDS011;38827;53.024;6.596;2024-02-26T14:24:44;11.93;;;7.88;;
52962;SDS011;38827;53.024;6.596;2024-02-26T14:27:15;11.85;;;7.80;;
52962;SDS011;38827;53.024;6.596;2024-02-26T14:29:52;11.10;;;7.72;;
52962;SDS011;38827;53.024;6.596;2024-02-26T14:32:25;13.05;;;8.13;;
52962;SDS011;38827;53.024;6.596;2024-02-26T14:35:00;11.00;;;7.82;;
52962;SDS011;38827;53.024;6.596;2024-02-26T14:37:26;12.70;;;7.85;;
52962;SDS011;38827;53.024;6.596;2024-02-26T14:40:04;11.90;;;8.13;;
52962;SDS011;38827;53.024;6.596;2024-02-26T14:42:30;11.85;;;8.07;;
52962;SDS011;38827;53.024;6.596;2024-02-26T14:45:15;10.60;;;7.55;;
52962;SDS011;38827;53.024;6.596;2024-02-26T14:47:44;10.82;;;8.57;;
52962;SDS011;38827;53.024;6.596;2024-02-26T14:50:09;11.75;;;8.23;;
52962;SDS011;38827;53.024;6.596;2024-02-26T14:52:45;10.45;;;7.93;;
52962;SDS011;38827;53.024;6.596;2024-02-26T14:55:17;10.88;;;7.68;;
52962;SDS011;38827;53.024;6.596;2024-02-26T14:57:46;13.23;;;8.70;;
52962;SDS011;38827;53.024;6.596;2024-02-26T15:00:14;13.27;;;8.20;;
52962;SDS011;38827;53.024;6.596;2024-02-26T15:02:40;11.52;;;8.30;;
52962;SDS011;38827;53.024;6.596;2024-02-26T15:05:07;14.32;;;8.30;;
52962;SDS011;38827;53.024;6.596;2024-02-26T15:10:40;10.32;;;7.63;;
52962;SDS011;38827;53.024;6.596;2024-02-26T15:13:13;11.20;;;7.63;;
52962;SDS011;38827;53.024;6.596;2024-02-26T15:15:52;12.13;;;7.80;;
52962;SDS011;38827;53.024;6.596;2024-02-26T15:18:23;10.93;;;7.07;;
52962;SDS011;38827;53.024;6.596;2024-02-26T15:21:04;10.35;;;7.55;;
52962;SDS011;38827;53.024;6.596;2024-02-26T15:23:31;8.98;;;7.13;;
52962;SDS011;38827;53.024;6.596;2024-02-26T15:26:09;10.32;;;7.00;;
52962;SDS011;38827;53.024;6.596;2024-02-26T15:28:35;10.38;;;7.15;;
52962;SDS011;38827;53.024;6.596;2024-02-26T15:31:01;9.95;;;6.75;;
52962;SDS011;38827;53.024;6.596;2024-02-26T15:33:30;10.65;;;6.75;;
52962;SDS011;38827;53.024;6.596;2024-02-26T15:35:57;9.98;;;6.57;;
52962;SDS011;38827;53.024;6.596;2024-02-26T15:38:23;9.40;;;6.63;;
52962;SDS011;38827;53.024;6.596;2024-02-26T15:40:52;8.50;;;6.80;;
52962;SDS011;38827;53.024;6.596;2024-02-26T15:43:18;10.43;;;6.82;;
52962;SDS011;38827;53.024;6.596;2024-02-26T15:45:46;9.27;;;6.68;;
52962;SDS011;38827;53.024;6.596;2024-02-26T15:48:12;10.27;;;7.18;;
52962;SDS011;38827;53.024;6.596;2024-02-26T15:50:38;9.20;;;7.10;;
52962;SDS011;38827;53.024;6.596;2024-02-26T15:53:06;10.23;;;6.97;;
52962;SDS011;38827;53.024;6.596;2024-02-26T15:55:32;11.63;;;8.27;;
52962;SDS011;38827;53.024;6.596;2024-02-26T15:57:58;9.57;;;7.35;;